Time;durP1;ratioP1;P1;durP2;ratioP2;P2;SDS_P1;SDS_P2;PMS_P1;PMS_P2;Temp;Humidity;BMP_temperature;BMP_pressure;BME280_temperature;BME280_humidity;BME280_pressure;Samples;Min_cycle;Max_cycle;Signal;HPM_P1;HPM_P2
2023/08/24 00:00:58;;;;;;;5.80;2.30;;;20.20;99.90;;;;;;5031356;28;20043;-57
2023/08/24 00:03:25;;;;;;;7.03;2.33;;;20.20;99.90;;;;;;5035232;28;20114;-57
2023/08/24 00:05:52;;;;;;;5.97;2.40;;;20.10;99.90;;;;;;5037148;28;20064;-56
2023/08/24 00:08:19;;;;;;;5.72;2.47;;;20.10;99.90;;;;;;5036420;28;20042;-57
2023/08/24 00:10:46;;;;;;;5.45;2.40;;;20.00;99.90;;;;;;5036583;28;20377;-56
2023/08/24 00:13:13;;;;;;;4.63;2.03;;;20.00;99.90;;;;;;5036355;28;20045;-56
2023/08/24 00:15:40;;;;;;;7.53;2.53;;;19.90;99.90;;;;;;5037032;28;20047;-58
2023/08/24 00:18:07;;;;;;;6.13;2.30;;;19.90;99.90;;;;;;5036451;28;20045;-55
2023/08/24 00:20:34;;;;;;;5.93;2.50;;;19.90;99.90;;;;;;5036308;28;20041;-57
2023/08/24 00:23:00;;;;;;;4.20;2.60;;;19.90;99.90;;;;;;5036854;28;20381;-56
2023/08/24 00:25:27;;;;;;;6.30;2.13;;;19.80;99.90;;;;;;5036128;28;20049;-56
2023/08/24 00:27:54;;;;;;;6.30;2.88;;;19.80;99.90;;;;;;5035366;28;20041;-54
2023/08/24 00:30:21;;;;;;;5.82;2.63;;;19.80;99.90;;;;;;5036251;28;20128;-59
2023/08/24 00:32:49;;;;;;;5.75;2.40;;;19.70;99.90;;;;;;5036319;28;20469;-58
2023/08/24 00:35:15;;;;;;;6.07;2.17;;;19.60;99.90;;;;;;5036568;28;20045;-56
2023/08/24 00:37:42;;;;;;;8.02;2.50;;;19.60;99.90;;;;;;5036148;28;20045;-56
2023/08/24 00:40:09;;;;;;;6.05;3.03;;;19.60;99.90;;;;;;5034727;28;20041;-55
2023/08/24 00:42:36;;;;;;;5.88;2.60;;;19.50;99.90;;;;;;5036247;28;20037;-58
2023/08/24 00:45:05;;;;;;;5.82;3.10;;;19.50;99.90;;;;;;5035933;28;20053;-57
2023/08/24 00:47:32;;;;;;;5.13;2.53;;;19.40;99.90;;;;;;5036301;28;20056;-58
2023/08/24 00:49:59;;;;;;;6.75;2.50;;;19.40;99.90;;;;;;5035777;28;20053;-59
2023/08/24 00:52:25;;;;;;;6.40;2.58;;;19.40;99.90;;;;;;5035132;28;20594;-59
2023/08/24 00:54:52;;;;;;;5.00;2.67;;;19.40;99.90;;;;;;5034724;28;20053;-56
2023/08/24 00:57:19;;;;;;;5.07;2.97;;;19.30;99.90;;;;;;5034262;28;20050;-56
2023/08/24 00:59:46;;;;;;;6.68;3.10;;;19.30;99.90;;;;;;5034661;28;20144;-53
2023/08/24 01:02:13;;;;;;;5.70;2.60;;;19.30;99.90;;;;;;5034598;28;20493;-56
2023/08/24 01:04:40;;;;;;;6.70;3.00;;;19.20;99.90;;;;;;5034384;28;20041;-57
2023/08/24 01:07:08;;;;;;;7.07;2.78;;;19.10;99.90;;;;;;5035792;28;20052;-57
2023/08/24 01:09:35;;;;;;;7.78;3.22;;;19.10;99.90;;;;;;5035440;28;20042;-56
2023/08/24 01:12:02;;;;;;;6.57;3.10;;;19.10;99.90;;;;;;5036059;28;20041;-58
2023/08/24 01:14:29;;;;;;;6.70;2.85;;;19.10;99.90;;;;;;5035600;28;20042;-57
2023/08/24 01:16:56;;;;;;;8.23;3.30;;;19.10;99.90;;;;;;5033980;28;20056;-54
2023/08/24 01:19:23;;;;;;;5.03;2.78;;;19.00;99.90;;;;;;5034084;28;20480;-54
2023/08/24 01:21:49;;;;;;;5.53;3.03;;;18.90;99.90;;;;;;5035717;28;20085;-55
2023/08/24 01:24:16;;;;;;;6.00;2.75;;;18.90;99.90;;;;;;5034124;28;20038;-57
2023/08/24 01:26:43;;;;;;;5.72;3.08;;;18.90;99.90;;;;;;5033768;28;20378;-54
2023/08/24 01:29:10;;;;;;;6.60;3.00;;;18.80;99.90;;;;;;5034859;28;20442;-57
2023/08/24 01:31:37;;;;;;;7.63;2.83;;;18.80;99.90;;;;;;5035005;28;20480;-55
2023/08/24 01:34:04;;;;;;;7.30;2.90;;;18.70;99.90;;;;;;5033713;28;20100;-59
2023/08/24 01:36:31;;;;;;;5.88;2.50;;;18.70;99.90;;;;;;5033340;28;20045;-55
2023/08/24 01:38:58;;;;;;;4.95;2.47;;;18.70;99.90;;;;;;5033853;28;20056;-54
2023/08/24 01:41:25;;;;;;;5.53;2.75;;;18.70;99.90;;;;;;5035267;28;20033;-55
2023/08/24 01:43:51;;;;;;;4.43;2.53;;;18.60;99.90;;;;;;5035161;28;20057;-57
2023/08/24 01:46:18;;;;;;;5.47;2.78;;;18.60;99.90;;;;;;5035088;28;20044;-55
2023/08/24 01:48:45;;;;;;;5.65;2.75;;;18.60;99.90;;;;;;5033460;28;20059;-58
2023/08/24 01:51:12;;;;;;;6.07;2.70;;;18.50;99.90;;;;;;5035066;28;20368;-54
2023/08/24 01:53:38;;;;;;;6.30;2.97;;;18.50;99.90;;;;;;5033671;28;20485;-57
2023/08/24 01:56:05;;;;;;;5.82;2.60;;;18.50;99.90;;;;;;5034701;28;20484;-57
2023/08/24 01:58:33;;;;;;;5.65;2.72;;;18.40;99.90;;;;;;5033183;28;20486;-59
2023/08/24 02:01:00;;;;;;;7.15;2.97;;;18.40;99.90;;;;;;5033372;28;20041;-57
2023/08/24 02:03:26;;;;;;;9.70;2.88;;;18.50;99.90;;;;;;5033414;28;20065;-59
2023/08/24 02:05:53;;;;;;;7.90;3.35;;;18.50;99.90;;;;;;5033412;28;20045;-54
2023/08/24 02:08:20;;;;;;;6.05;3.10;;;18.40;99.90;;;;;;5032977;28;20041;-57
2023/08/24 02:10:47;;;;;;;6.97;3.15;;;18.40;99.90;;;;;;5034229;28;20049;-56
2023/08/24 02:13:14;;;;;;;6.03;2.92;;;18.40;99.90;;;;;;5034787;28;20049;-55
2023/08/24 02:15:41;;;;;;;6.30;3.08;;;18.40;99.90;;;;;;5016536;28;20431;-56
2023/08/24 02:18:07;;;;;;;3.95;2.78;;;18.40;99.90;;;;;;5033269;28;20081;-58
2023/08/24 02:20:34;;;;;;;7.05;2.75;;;18.30;99.90;;;;;;5032473;28;20041;-56
2023/08/24 02:23:02;;;;;;;4.88;2.83;;;18.20;99.90;;;;;;5034664;28;20523;-57
2023/08/24 02:25:29;;;;;;;6.05;2.60;;;18.30;99.90;;;;;;5032269;28;20485;-56
2023/08/24 02:27:56;;;;;;;5.40;2.47;;;18.20;99.90;;;;;;5033705;28;20064;-56
2023/08/24 02:30:23;;;;;;;6.57;2.80;;;18.20;99.90;;;;;;5033836;28;20041;-57
2023/08/24 02:32:50;;;;;;;8.57;2.80;;;18.30;99.90;;;;;;5034149;28;20041;-59
2023/08/24 02:35:18;;;;;;;5.85;2.78;;;18.30;99.90;;;;;;5034286;28;20057;-52
2023/08/24 02:37:45;;;;;;;6.60;3.00;;;18.30;99.90;;;;;;5034169;28;20091;-58
2023/08/24 02:40:12;;;;;;;8.63;3.15;;;18.20;99.90;;;;;;5033621;28;20063;-55
2023/08/24 02:42:39;;;;;;;5.78;2.90;;;18.30;99.90;;;;;;5033809;28;20468;-56
2023/08/24 02:45:05;;;;;;;5.60;2.78;;;18.30;99.90;;;;;;5033671;28;20453;-59
2023/08/24 02:47:32;;;;;;;7.03;2.50;;;18.30;99.90;;;;;;5032272;28;20049;-60
2023/08/24 02:50:00;;;;;;;5.28;2.88;;;18.40;99.90;;;;;;5031941;28;20116;-56
2023/08/24 02:52:27;;;;;;;5.35;2.60;;;18.40;99.90;;;;;;5033249;28;20128;-58
2023/08/24 02:54:53;;;;;;;8.85;3.08;;;18.40;99.90;;;;;;5033131;28;20473;-59
2023/08/24 02:57:20;;;;;;;9.25;3.25;;;18.40;99.90;;;;;;5031989;28;20051;-54
2023/08/24 02:59:47;;;;;;;6.85;3.78;;;18.40;99.90;;;;;;5031805;28;20042;-58
2023/08/24 03:02:14;;;;;;;7.32;3.95;;;18.40;99.90;;;;;;5031864;28;20141;-54
2023/08/24 03:04:41;;;;;;;6.88;4.10;;;18.40;99.90;;;;;;5033855;28;20394;-56
2023/08/24 03:07:10;;;;;;;9.18;3.88;;;18.40;99.90;;;;;;5031746;28;20041;-52
2023/08/24 03:09:37;;;;;;;7.20;4.35;;;18.40;99.90;;;;;;5033616;28;20350;-55
2023/08/24 03:12:03;;;;;;;7.35;3.67;;;18.40;99.90;;;;;;5033156;28;20505;-52
2023/08/24 03:14:31;;;;;;;8.25;4.40;;;18.40;99.90;;;;;;5033237;28;20451;-53
2023/08/24 03:16:59;;;;;;;10.00;4.30;;;18.40;99.90;;;;;;5015846;28;20045;-55
2023/08/24 03:19:26;;;;;;;6.50;3.95;;;18.40;99.90;;;;;;5031813;28;20045;-57
2023/08/24 03:21:53;;;;;;;6.88;4.50;;;18.40;99.90;;;;;;5032199;28;20493;-52
2023/08/24 03:24:20;;;;;;;8.95;4.30;;;18.50;99.90;;;;;;5031577;28;20063;-57
2023/08/24 03:26:47;;;;;;;7.63;3.72;;;18.60;99.90;;;;;;5033132;28;20108;-54
2023/08/24 03:29:14;;;;;;;8.55;3.80;;;18.60;99.90;;;;;;5033101;28;20069;-52
2023/08/24 03:31:41;;;;;;;9.90;3.50;;;18.50;99.90;;;;;;5031371;28;20048;-55
2023/08/24 03:34:08;;;;;;;8.63;4.00;;;18.50;99.90;;;;;;5032717;28;20430;-53
2023/08/24 03:36:34;;;;;;;7.00;3.40;;;18.50;99.90;;;;;;5032638;28;20472;-51
2023/08/24 03:39:01;;;;;;;5.60;3.35;;;18.50;99.90;;;;;;5033403;28;20053;-49
2023/08/24 03:41:29;;;;;;;7.10;4.03;;;18.50;99.90;;;;;;5031525;28;20038;-57
2023/08/24 03:43:57;;;;;;;7.65;3.63;;;18.50;99.90;;;;;;5033284;28;20362;-55
2023/08/24 03:46:24;;;;;;;6.63;3.45;;;18.60;99.90;;;;;;5031749;28;20056;-59
2023/08/24 03:48:52;;;;;;;8.07;3.50;;;18.60;99.90;;;;;;5032853;28;20053;-58
2023/08/24 03:51:19;;;;;;;10.02;4.60;;;18.60;99.90;;;;;;5031306;28;20128;-52
2023/08/24 03:53:46;;;;;;;7.00;3.75;;;18.60;99.90;;;;;;5031343;28;20111;-57
2023/08/24 03:56:13;;;;;;;6.70;3.70;;;18.60;99.90;;;;;;5014835;28;20045;-52
2023/08/24 03:58:40;;;;;;;8.38;3.92;;;18.60;99.90;;;;;;5032689;28;20041;-58
2023/08/24 04:01:07;;;;;;;7.28;3.30;;;18.60;99.90;;;;;;5031140;28;20053;-53
2023/08/24 04:03:34;;;;;;;8.65;3.63;;;18.70;99.90;;;;;;5031701;28;20387;-58
2023/08/24 04:06:01;;;;;;;6.35;3.45;;;18.70;99.90;;;;;;5031200;28;20045;-57
2023/08/24 04:08:29;;;;;;;7.13;3.80;;;18.70;99.90;;;;;;5032764;28;20045;-56
2023/08/24 04:10:56;;;;;;;7.35;4.05;;;18.70;99.90;;;;;;5032543;28;20580;-54
2023/08/24 04:13:23;;;;;;;14.10;4.07;;;18.70;99.90;;;;;;5032884;28;20390;-57
2023/08/24 04:15:50;;;;;;;9.07;3.92;;;18.70;99.90;;;;;;5031158;28;20089;-59
2023/08/24 04:18:17;;;;;;;7.13;3.85;;;18.70;99.90;;;;;;5031221;28;20103;-57
2023/08/24 04:20:44;;;;;;;9.68;3.72;;;18.70;99.90;;;;;;5032301;28;20064;-53
2023/08/24 04:23:10;;;;;;;7.35;3.90;;;18.80;99.90;;;;;;5032506;28;20508;-56
2023/08/24 04:25:37;;;;;;;11.23;4.22;;;18.80;99.90;;;;;;5032378;28;20469;-52
2023/08/24 04:28:04;;;;;;;8.35;4.18;;;18.80;99.90;;;;;;5032792;28;20052;-54
2023/08/24 04:30:32;;;;;;;7.72;3.80;;;18.80;99.90;;;;;;5033019;28;20060;-57
2023/08/24 04:32:59;;;;;;;8.73;3.78;;;18.80;99.90;;;;;;5032479;28;20122;-54
2023/08/24 04:35:26;;;;;;;8.30;4.40;;;18.80;99.90;;;;;;5032947;28;20045;-55
2023/08/24 04:37:54;;;;;;;8.50;4.05;;;18.80;99.90;;;;;;5032665;28;20465;-51
2023/08/24 04:40:21;;;;;;;7.47;4.40;;;18.80;99.90;;;;;;5032462;28;20045;-55
2023/08/24 04:42:48;;;;;;;9.15;3.90;;;18.80;99.90;;;;;;5032299;28;20048;-55
2023/08/24 04:45:15;;;;;;;9.95;4.25;;;18.70;99.90;;;;;;5032943;28;20048;-53
2023/08/24 04:47:41;;;;;;;8.32;4.38;;;18.70;99.90;;;;;;5032526;28;20586;-57
2023/08/24 04:50:08;;;;;;;8.82;4.00;;;18.60;99.90;;;;;;5035246;28;20053;-57
2023/08/24 04:52:35;;;;;;;10.73;4.03;;;18.70;99.90;;;;;;5035756;28;20166;-55
2023/08/24 04:55:03;;;;;;;8.32;4.15;;;18.80;99.90;;;;;;5035573;28;20495;-56
2023/08/24 04:57:30;;;;;;;10.05;4.13;;;18.80;99.90;;;;;;5035534;28;20342;-55
2023/08/24 04:59:57;;;;;;;7.07;3.88;;;18.80;99.90;;;;;;5036112;28;20111;-58
2023/08/24 05:02:23;;;;;;;8.35;4.22;;;18.80;99.90;;;;;;5035822;28;20072;-56
2023/08/24 05:04:50;;;;;;;9.40;4.05;;;18.80;99.90;;;;;;5034631;28;20053;-56
2023/08/24 05:07:17;;;;;;;8.30;4.05;;;18.70;99.90;;;;;;5035643;28;20473;-56
2023/08/24 05:09:44;;;;;;;11.90;4.38;;;18.70;99.90;;;;;;5035447;28;20077;-52
2023/08/24 05:12:11;;;;;;;10.55;4.43;;;18.70;99.90;;;;;;5035707;28;20033;-58
2023/08/24 05:14:38;;;;;;;10.73;4.10;;;18.70;99.90;;;;;;5035125;28;20041;-51
2023/08/24 05:17:05;;;;;;;8.30;4.22;;;18.80;99.90;;;;;;5035324;28;20045;-56
2023/08/24 05:19:31;;;;;;;12.95;4.80;;;18.80;99.90;;;;;;5035475;28;20041;-59
2023/08/24 05:21:58;;;;;;;16.67;5.35;;;18.80;99.90;;;;;;5034966;28;20037;-56
2023/08/24 05:24:25;;;;;;;9.70;4.80;;;18.70;99.90;;;;;;5035493;28;20048;-57
2023/08/24 05:26:51;;;;;;;8.27;5.00;;;18.60;99.90;;;;;;5034812;28;20053;-59
2023/08/24 05:29:18;;;;;;;12.38;5.65;;;18.40;99.90;;;;;;5035120;28;20045;-57
2023/08/24 05:31:45;;;;;;;10.27;5.05;;;18.20;99.90;;;;;;5035509;28;20052;-56
2023/08/24 05:34:12;;;;;;;10.35;5.20;;;18.10;99.90;;;;;;5035255;28;20047;-56
2023/08/24 05:36:39;;;;;;;11.23;5.45;;;18.00;99.90;;;;;;5035330;28;20515;-57
2023/08/24 05:39:05;;;;;;;13.80;6.18;;;18.00;99.90;;;;;;5035303;28;20080;-52
2023/08/24 05:41:32;;;;;;;11.80;5.13;;;18.00;99.90;;;;;;5035035;28;20392;-54
2023/08/24 05:43:59;;;;;;;8.63;4.85;;;18.00;99.90;;;;;;5034819;28;20049;-57
2023/08/24 05:46:26;;;;;;;11.68;5.28;;;18.00;99.90;;;;;;5035437;28;20045;-57
2023/08/24 05:48:53;;;;;;;6.07;4.60;;;18.00;99.90;;;;;;5034173;28;20455;-55
2023/08/24 05:51:20;;;;;;;9.68;5.18;;;18.00;99.90;;;;;;5034782;28;20054;-55
2023/08/24 05:53:47;;;;;;;9.95;4.85;;;18.00;99.90;;;;;;5035212;28;20049;-55
2023/08/24 05:56:13;;;;;;;9.25;4.93;;;18.00;99.90;;;;;;5034881;28;20590;-55
2023/08/24 05:58:40;;;;;;;11.02;5.45;;;18.10;99.90;;;;;;5034842;28;20037;-56
2023/08/24 06:01:07;;;;;;;8.88;4.68;;;18.10;99.90;;;;;;5033244;28;20112;-55
2023/08/24 06:03:34;;;;;;;11.20;5.03;;;18.10;99.90;;;;;;5034825;28;20046;-57
2023/08/24 06:06:02;;;;;;;12.05;5.05;;;18.10;99.90;;;;;;5034645;28;20037;-53
2023/08/24 06:08:29;;;;;;;13.68;5.18;;;18.10;99.90;;;;;;5035205;28;20044;-54
2023/08/24 06:10:55;;;;;;;9.00;4.72;;;18.10;99.90;;;;;;5033959;28;20046;-55
2023/08/24 06:13:22;;;;;;;9.82;4.75;;;18.10;99.90;;;;;;5034236;28;20054;-52
2023/08/24 06:15:49;;;;;;;10.50;4.85;;;18.20;99.90;;;;;;5034101;28;20124;-57
2023/08/24 06:18:16;;;;;;;9.90;5.20;;;18.20;99.90;;;;;;5034425;28;20486;-57
2023/08/24 06:20:43;;;;;;;10.18;5.60;;;18.20;99.90;;;;;;5032998;28;20041;-57
2023/08/24 06:23:09;;;;;;;10.38;5.15;;;18.20;99.90;;;;;;5034615;28;20464;-54
2023/08/24 06:25:36;;;;;;;8.63;5.32;;;18.20;99.90;;;;;;5033872;28;20037;-56
2023/08/24 06:28:04;;;;;;;9.35;5.40;;;18.20;99.90;;;;;;5034073;28;20041;-53
2023/08/24 06:30:36;;;;;;;7.63;5.50;;;18.20;99.90;;;;;;5034434;28;20042;-54
2023/08/24 06:33:03;;;;;;;6.72;5.28;;;18.20;99.90;;;;;;5034099;28;20052;-49
2023/08/24 06:35:30;;;;;;;9.38;5.18;;;18.20;99.90;;;;;;5034775;28;20377;-55
2023/08/24 06:37:57;;;;;;;12.38;5.60;;;18.30;99.90;;;;;;5034083;28;20060;-57
2023/08/24 06:40:23;;;;;;;11.00;5.60;;;18.30;99.90;;;;;;5033736;28;20132;-57
2023/08/24 06:42:50;;;;;;;8.50;5.43;;;18.30;99.90;;;;;;5034059;28;20132;-54
2023/08/24 06:45:18;;;;;;;7.28;5.05;;;18.30;99.90;;;;;;5033997;28;20041;-54
2023/08/24 06:47:45;;;;;;;8.43;4.70;;;18.40;99.90;;;;;;5033875;28;20128;-52
2023/08/24 06:50:12;;;;;;;10.80;5.00;;;18.40;99.90;;;;;;5033617;28;20060;-52
2023/08/24 06:52:38;;;;;;;11.93;4.90;;;18.40;99.90;;;;;;5033802;28;20045;-53
2023/08/24 06:55:05;;;;;;;9.23;4.80;;;18.50;99.90;;;;;;5033783;28;20037;-55
2023/08/24 06:57:32;;;;;;;11.20;5.63;;;18.40;99.90;;;;;;5032687;28;20412;-55
2023/08/24 07:00:00;;;;;;;9.80;4.93;;;18.40;99.90;;;;;;5033692;28;20103;-55
2023/08/24 07:02:26;;;;;;;10.38;5.57;;;18.40;99.90;;;;;;5034011;28;20481;-56
2023/08/24 07:04:57;;;;;;;12.52;5.95;;;18.40;99.90;;;;;;5033538;28;20037;-55
2023/08/24 07:07:23;;;;;;;11.30;5.60;;;18.40;99.90;;;;;;5033516;28;20037;-53
2023/08/24 07:09:50;;;;;;;13.02;5.78;;;18.40;99.90;;;;;;5032771;28;20037;-57
2023/08/24 07:12:17;;;;;;;12.55;5.60;;;18.50;99.90;;;;;;5032065;28;20038;-55
2023/08/24 07:14:44;;;;;;;9.27;5.63;;;18.40;99.90;;;;;;5033201;28;20447;-55
2023/08/24 07:17:11;;;;;;;12.27;5.43;;;18.40;99.90;;;;;;5033019;28;20045;-57
2023/08/24 07:19:37;;;;;;;205.88;22.02;;;18.40;99.90;;;;;;5033469;28;20143;-54
2023/08/24 07:22:04;;;;;;;21.98;6.63;;;18.50;99.90;;;;;;5033387;28;20491;-58
2023/08/24 07:24:33;;;;;;;15.73;6.50;;;18.60;99.90;;;;;;5033278;28;20045;-53
2023/08/24 07:27:11;;;;;;;11.68;5.95;;;18.70;99.90;;;;;;5031081;28;20099;-53
2023/08/24 07:29:38;;;;;;;10.40;6.20;;;18.80;99.90;;;;;;5033785;28;20473;-55
2023/08/24 07:32:04;;;;;;;606.38;59.72;;;18.80;99.90;;;;;;5033199;28;20056;-58
2023/08/24 07:34:31;;;;;;;24.63;8.57;;;18.80;99.90;;;;;;5033608;28;20363;-54
2023/08/24 07:36:58;;;;;;;10.20;5.50;;;18.80;99.90;;;;;;5032559;28;20049;-58
2023/08/24 07:39:25;;;;;;;37.10;7.72;;;18.80;99.90;;;;;;5025594;28;20052;-50
2023/08/24 07:41:52;;;;;;;10.35;6.00;;;18.70;99.90;;;;;;5033439;28;20041;-56
2023/08/24 07:44:19;;;;;;;10.73;5.40;;;18.80;99.90;;;;;;5031789;28;20061;-57
2023/08/24 07:46:46;;;;;;;10.80;5.93;;;18.80;99.90;;;;;;5033106;28;20038;-59
2023/08/24 07:49:13;;;;;;;9.30;6.40;;;18.90;99.90;;;;;;5032925;28;20091;-58
2023/08/24 07:51:40;;;;;;;11.77;6.00;;;18.90;99.90;;;;;;5030875;28;20042;-60
2023/08/24 07:54:06;;;;;;;13.25;5.65;;;18.90;99.90;;;;;;5032902;28;20152;-56
2023/08/24 07:56:33;;;;;;;12.30;6.88;;;18.90;99.90;;;;;;5032565;28;20500;-55
2023/08/24 07:59:00;;;;;;;10.00;6.68;;;18.80;99.90;;;;;;5031776;28;20081;-58
2023/08/24 08:01:27;;;;;;;11.00;6.47;;;18.90;99.90;;;;;;5032910;28;20392;-55
2023/08/24 08:03:54;;;;;;;11.70;6.35;;;18.90;99.90;;;;;;5033110;28;20112;-56
2023/08/24 08:06:21;;;;;;;11.63;6.32;;;18.90;99.90;;;;;;5031975;28;20044;-56
2023/08/24 08:08:50;;;;;;;9.02;6.38;;;19.00;99.90;;;;;;5031711;28;20481;-56
2023/08/24 08:11:22;;;;;;;11.87;6.53;;;19.00;99.90;;;;;;5032123;28;20042;-59
2023/08/24 08:13:49;;;;;;;11.60;6.07;;;19.00;99.90;;;;;;5032676;28;20049;-58
2023/08/24 08:16:16;;;;;;;10.35;6.32;;;19.00;99.90;;;;;;5032615;28;20056;-59
2023/08/24 08:18:43;;;;;;;11.68;6.03;;;19.10;99.90;;;;;;5032579;28;20049;-59
2023/08/24 08:21:10;;;;;;;11.18;6.50;;;19.10;99.90;;;;;;5032355;28;20595;-58
2023/08/24 08:23:37;;;;;;;21.23;11.55;;;19.20;99.90;;;;;;5033186;28;20473;-56
2023/08/24 08:26:04;;;;;;;15.32;6.50;;;19.20;99.90;;;;;;5036293;28;20041;-58
2023/08/24 08:28:33;;;;;;;9.45;6.22;;;19.40;99.90;;;;;;5036065;28;20084;-55
2023/08/24 08:31:00;;;;;;;12.05;6.13;;;19.50;99.90;;;;;;5034881;28;20041;-55
2023/08/24 08:33:27;;;;;;;9.75;5.63;;;19.50;99.90;;;;;;5036084;28;20038;-59
2023/08/24 08:35:54;;;;;;;13.23;6.95;;;19.70;99.90;;;;;;5036013;28;20041;-58
2023/08/24 08:38:25;;;;;;;10.10;6.40;;;19.70;99.90;;;;;;5035761;28;20482;-54
2023/08/24 08:40:52;;;;;;;10.48;6.45;;;19.80;99.90;;;;;;5035622;28;20049;-54
2023/08/24 08:43:19;;;;;;;14.80;6.60;;;19.70;99.90;;;;;;5035954;28;20364;-58
2023/08/24 08:45:46;;;;;;;12.07;6.70;;;19.70;99.90;;;;;;5036216;28;20044;-58
2023/08/24 08:48:13;;;;;;;11.23;6.78;;;19.70;99.90;;;;;;5035699;28;20040;-53
2023/08/24 08:50:40;;;;;;;10.88;6.68;;;19.70;99.90;;;;;;5035542;28;20054;-56
2023/08/24 08:53:06;;;;;;;12.80;7.63;;;19.80;99.90;;;;;;5035035;28;20041;-55
2023/08/24 08:55:33;;;;;;;15.35;7.22;;;19.80;99.90;;;;;;5035538;28;20133;-56
2023/08/24 08:58:00;;;;;;;12.90;7.72;;;20.00;99.90;;;;;;5035663;28;20049;-59
2023/08/24 09:00:27;;;;;;;9.27;6.85;;;20.20;99.90;;;;;;5035737;28;20041;-54
2023/08/24 09:02:55;;;;;;;11.75;6.53;;;20.40;99.90;;;;;;5035614;28;20477;-57
2023/08/24 09:05:22;;;;;;;11.88;6.97;;;20.60;99.90;;;;;;5034678;28;20059;-53
2023/08/24 09:07:49;;;;;;;11.80;6.65;;;20.80;99.90;;;;;;5034402;28;20519;-55
2023/08/24 09:10:17;;;;;;;11.73;7.25;;;21.00;99.90;;;;;;5035713;28;20499;-50
2023/08/24 09:12:44;;;;;;;25.83;23.50;;;21.10;99.90;;;;;;5035529;28;20033;-54
2023/08/24 09:15:11;;;;;;;16.73;11.82;;;21.10;99.90;;;;;;5035143;28;20048;-54
2023/08/24 09:17:37;;;;;;;16.35;9.88;;;21.00;99.90;;;;;;5035242;28;20083;-52
2023/08/24 09:20:05;;;;;;;14.35;6.93;;;20.90;99.90;;;;;;5034531;28;20056;-54
2023/08/24 09:22:33;;;;;;;10.32;7.18;;;20.80;99.90;;;;;;5029180;28;20034;-55
2023/08/24 09:25:03;;;;;;;10.70;7.28;;;20.80;99.90;;;;;;5034370;28;20042;-57
2023/08/24 09:27:30;;;;;;;10.35;7.53;;;20.80;99.90;;;;;;5029194;28;20049;-52
2023/08/24 09:29:57;;;;;;;10.80;7.43;;;20.70;99.90;;;;;;5034140;28;20034;-53
2023/08/24 09:32:24;;;;;;;11.68;7.55;;;20.60;99.90;;;;;;5035125;28;20116;-53
2023/08/24 09:34:51;;;;;;;11.02;6.97;;;20.40;99.90;;;;;;5028320;28;20110;-54
2023/08/24 09:37:18;;;;;;;13.15;7.80;;;20.30;99.90;;;;;;5028454;28;20050;-57
2023/08/24 09:39:45;;;;;;;13.27;8.00;;;20.30;99.90;;;;;;5034722;28;20045;-57
2023/08/24 09:42:11;;;;;;;14.07;7.78;;;20.30;99.90;;;;;;5034690;28;20495;-54
2023/08/24 09:44:38;;;;;;;12.20;8.10;;;20.40;99.90;;;;;;5034030;28;20396;-55
2023/08/24 09:47:05;;;;;;;16.13;10.13;;;20.50;99.90;;;;;;5034518;28;20493;-51
2023/08/24 09:49:32;;;;;;;16.52;9.43;;;20.60;99.90;;;;;;5033657;28;20046;-54
2023/08/24 09:51:59;;;;;;;13.25;7.90;;;20.70;99.90;;;;;;5034603;28;20476;-53
2023/08/24 09:54:26;;;;;;;11.63;7.40;;;20.80;99.90;;;;;;5033538;28;20060;-53
2023/08/24 09:56:52;;;;;;;12.60;7.88;;;20.80;99.90;;;;;;5034233;28;20048;-49
2023/08/24 09:59:21;;;;;;;14.63;6.85;;;20.90;99.90;;;;;;5033594;28;20045;-50
2023/08/24 10:01:48;;;;;;;93.00;15.48;;;21.10;99.90;;;;;;5034324;28;20069;-50
2023/08/24 10:04:15;;;;;;;14.93;7.72;;;21.20;99.90;;;;;;5033412;28;20061;-54
2023/08/24 10:06:42;;;;;;;9.48;6.88;;;21.30;99.90;;;;;;5033959;28;20040;-58
2023/08/24 10:09:09;;;;;;;16.08;7.28;;;21.50;99.90;;;;;;5033533;28;20041;-57
2023/08/24 10:11:36;;;;;;;66.80;12.57;;;21.70;99.90;;;;;;5034174;28;20041;-58
2023/08/24 10:14:03;;;;;;;18.95;7.95;;;21.90;99.90;;;;;;5032397;28;20493;-55
2023/08/24 10:16:30;;;;;;;12.05;6.68;;;22.10;99.90;;;;;;5031547;28;20049;-56
2023/08/24 10:18:57;;;;;;;14.05;7.47;;;22.20;99.90;;;;;;5033455;28;20051;-59
2023/08/24 10:21:27;;;;;;;437.30;58.53;;;22.40;99.90;;;;;;5032981;28;20093;-56
2023/08/24 10:23:53;;;;;;;39.13;10.77;;;22.50;99.90;;;;;;5033929;28;20041;-58
2023/08/24 10:26:21;;;;;;;12.02;7.55;;;22.60;99.90;;;;;;5033028;28;20037;-57
2023/08/24 10:28:48;;;;;;;14.30;7.80;;;22.60;99.90;;;;;;5033593;28;20041;-54
2023/08/24 10:31:15;;;;;;;16.90;7.07;;;22.70;99.90;;;;;;5033625;28;20045;-57
2023/08/24 10:33:44;;;;;;;19.08;7.80;;;22.80;99.90;;;;;;5033187;28;20065;-56
2023/08/24 10:36:11;;;;;;;75.85;12.38;;;22.80;99.90;;;;;;5033680;28;20097;-58
2023/08/24 10:38:38;;;;;;;13.40;6.63;;;22.90;99.90;;;;;;5027218;28;20064;-59
2023/08/24 10:41:04;;;;;;;12.40;7.10;;;22.90;99.90;;;;;;5031390;28;20139;-57
2023/08/24 10:43:31;;;;;;;11.88;6.32;;;23.00;99.90;;;;;;5032811;28;20472;-56
2023/08/24 10:45:58;;;;;;;12.52;6.28;;;23.10;99.90;;;;;;5032996;28;20048;-53
2023/08/24 10:48:25;;;;;;;11.82;6.13;;;23.20;99.90;;;;;;5033270;28;20042;-58
2023/08/24 10:50:52;;;;;;;9.80;6.00;;;23.30;99.90;;;;;;5031263;28;20128;-54
2023/08/24 10:53:19;;;;;;;10.10;5.90;;;23.40;99.90;;;;;;5033245;28;20045;-57
2023/08/24 10:55:46;;;;;;;11.23;5.45;;;23.50;99.90;;;;;;5032285;28;20079;-57
2023/08/24 10:58:12;;;;;;;10.63;5.40;;;23.60;99.90;;;;;;5033443;28;20047;-55
2023/08/24 11:00:39;;;;;;;9.23;5.55;;;23.90;99.90;;;;;;5032306;28;20509;-58
2023/08/24 11:03:06;;;;;;;10.18;4.72;;;23.90;99.90;;;;;;5033301;28;20377;-57
2023/08/24 11:05:35;;;;;;;9.70;4.32;;;24.10;99.90;;;;;;5032598;28;20042;-54
2023/08/24 11:08:02;;;;;;;9.85;5.00;;;24.10;99.90;;;;;;5033205;28;20041;-56
2023/08/24 11:10:29;;;;;;;11.20;4.30;;;24.10;99.90;;;;;;5032376;28;20096;-57
2023/08/24 11:12:55;;;;;;;8.55;4.65;;;24.10;99.90;;;;;;5033156;28;20045;-54
2023/08/24 11:15:22;;;;;;;8.73;4.70;;;24.10;99.90;;;;;;5032811;28;20166;-58
2023/08/24 11:17:49;;;;;;;9.38;4.47;;;24.10;99.90;;;;;;5031440;28;20129;-58
2023/08/24 11:20:16;;;;;;;10.27;4.13;;;24.30;99.90;;;;;;5032788;28;20161;-54
2023/08/24 11:22:44;;;;;;;8.98;4.03;;;24.40;99.90;;;;;;5032451;28;20052;-53
2023/08/24 11:25:11;;;;;;;9.05;3.78;;;24.50;99.90;;;;;;5033119;28;20041;-57
2023/08/24 11:27:37;;;;;;;6.97;3.70;;;24.60;99.90;;;;;;5030538;28;20412;-53
2023/08/24 11:30:05;;;;;;;7.68;3.50;;;24.70;99.90;;;;;;5032747;28;20041;-56
2023/08/24 11:32:32;;;;;;;9.15;4.00;;;24.70;99.90;;;;;;5031977;28;20048;-58
2023/08/24 11:34:59;;;;;;;8.07;3.40;;;24.70;99.90;;;;;;5033059;28;20037;-56
2023/08/24 11:37:25;;;;;;;8.00;3.47;;;24.70;99.90;;;;;;5031777;28;20128;-57
2023/08/24 11:39:52;;;;;;;8.45;3.38;;;24.70;99.90;;;;;;5032566;28;20121;-54
2023/08/24 11:42:19;;;;;;;8.75;3.70;;;24.80;99.90;;;;;;5031378;28;20049;-58
2023/08/24 11:44:46;;;;;;;5.57;2.83;;;24.90;99.90;;;;;;5032020;28;20033;-55
2023/08/24 11:47:13;;;;;;;10.80;3.15;;;25.00;99.90;;;;;;5032584;28;20473;-57
2023/08/24 11:49:40;;;;;;;5.88;2.80;;;25.00;99.90;;;;;;5031865;28;20050;-58
2023/08/24 11:52:06;;;;;;;5.75;2.78;;;25.10;99.30;;;;;;5032766;28;20042;-56
2023/08/24 11:54:33;;;;;;;5.63;2.60;;;25.10;98.50;;;;;;5031813;28;20043;-57
2023/08/24 11:57:00;;;;;;;7.30;3.22;;;25.00;98.90;;;;;;5032740;28;20057;-57
2023/08/24 11:59:27;;;;;;;6.22;2.83;;;24.90;99.00;;;;;;5034175;28;20759;-55
2023/08/24 12:01:54;;;;;;;6.40;3.00;;;24.90;99.00;;;;;;5031260;28;20051;-53
2023/08/24 12:04:21;;;;;;;6.32;2.65;;;24.80;99.10;;;;;;5035980;28;20103;-59
2023/08/24 12:06:48;;;;;;;10.00;3.13;;;24.60;98.80;;;;;;5031827;28;20370;-55
2023/08/24 12:09:15;;;;;;;5.75;2.55;;;24.60;99.20;;;;;;5036037;28;20365;-58
2023/08/24 12:11:42;;;;;;;6.10;2.72;;;24.60;99.60;;;;;;5035396;28;20041;-58
2023/08/24 12:14:09;;;;;;;5.70;2.88;;;24.60;99.30;;;;;;5035898;28;20117;-56
2023/08/24 12:16:37;;;;;;;5.25;2.38;;;24.60;99.80;;;;;;5035083;28;20549;-53
2023/08/24 12:19:03;;;;;;;5.38;2.55;;;24.60;99.80;;;;;;5036017;28;20179;-54
2023/08/24 12:21:30;;;;;;;6.50;2.60;;;24.70;99.90;;;;;;5029469;28;20044;-56
2023/08/24 12:23:57;;;;;;;8.48;2.80;;;24.70;99.70;;;;;;5035630;28;20045;-53
2023/08/24 12:26:24;;;;;;;7.35;2.67;;;24.70;99.90;;;;;;5033127;28;20469;-54
2023/08/24 12:28:52;;;;;;;7.38;3.00;;;24.80;99.70;;;;;;5035778;28;20113;-59
2023/08/24 12:31:19;;;;;;;8.30;3.17;;;24.70;99.00;;;;;;5027433;28;20485;-57
2023/08/24 12:33:46;;;;;;;6.80;2.88;;;24.80;99.90;;;;;;5035887;28;20048;-59
2023/08/24 12:36:13;;;;;;;8.57;3.17;;;24.80;99.50;;;;;;5034954;28;20080;-59
2023/08/24 12:38:41;;;;;;;219.65;18.92;;;24.90;98.50;;;;;;5035440;28;20048;-57
2023/08/24 12:41:08;;;;;;;7.28;2.90;;;24.90;97.50;;;;;;5030610;28;20046;-53